Flight Track Log - Related Links

Times and Time Zones

All times are in EDT time to prevent confusion due to time zone crossing. See the AWI3695 flight status page for this flight to view local times or setup timezone preferences in your user account.

Time Position Orientation Groundspeed Altitude Reporting Facility
EDT Latitude Longitude Course Direction KTS MPH feet Rate Location/Type
Sun 06:07:05 AM 38.8000 -77.0333 201° Southwest 180 207 1,600  Level Potomac TRACON
Sun 06:08:06 AM 38.7500 -77.0500 195° South 236 272 3,700 2,273 Climbing Potomac TRACON
Sun 06:09:00 AM 38.6303 -77.2743 221° Southwest  Level FlightAware Approximate
Sun 06:09:46 AM 38.6697 -77.1658 228° Southwest 279 321 7,700  Level Washington Center
Sun 06:10:00 AM 38.5554 -77.3585 221° Southwest  Level FlightAware Approximate
Sun 06:10:47 AM 38.6186 -77.2392 228° Southwest 279 321 9,900  Level Washington Center
Sun 06:11:00 AM 38.4838 -77.4471 225° Southwest  Level FlightAware Approximate
Sun 06:11:47 AM 38.5675 -77.3150 229° Southwest 279 321 11,600  Level Washington Center
Sun 06:12:00 AM 38.4124 -77.5355 201° Southwest  Level FlightAware Approximate
Sun 06:12:46 AM 38.5119 -77.3958 229° Southwest 286 329 13,400  Level Washington Center
Sun 06:13:47 AM 38.4567 -77.4822 231° Southwest 307 353 15,100 1,525 Climbing Washington Center
Sun 06:14:48 AM 38.3989 -77.5681 229° Southwest 318 366 16,500 1,240 Climbing Washington Center
Sun 06:15:48 AM 38.3389 -77.6564 229° Southwest 329 379 17,600 1,210 Climbing Washington Center
Sun 06:16:47 AM 38.2789 -77.7500 231° Southwest 334 384 18,900 1,109 Climbing Washington Center
Sun 06:17:47 AM 38.2189 -77.8433 231° Southwest 345 397 19,800 908 Climbing Washington Center
Sun 06:18:46 AM 38.1544 -77.9392 229° Southwest 350 403 20,700 958 Climbing Washington Center
Sun 06:19:46 AM 38.0900 -78.0347 229° Southwest 350 403 21,700 836 Climbing Washington Center
Sun 06:20:48 AM 38.0275 -78.1303 230° Southwest 350 403 22,400 683 Climbing Washington Center
Sun 06:21:49 AM 37.9756 -78.2181 233° Southwest 345 397 23,100 763 Climbing Washington Center
Sun 06:22:46 AM 37.9003 -78.3261 229° Southwest 355 409 23,900 915 Climbing Washington Center
Sun 06:23:47 AM 37.8314 -78.4208 227° Southwest 365 420 24,900 878 Climbing Washington Center
Sun 06:24:49 AM 37.7664 -78.5156 229° Southwest 365 420 25,700 787 Climbing Washington Center
Sun 06:25:49 AM 37.7039 -78.6025 228° Southwest 370 426 26,500 700 Climbing Washington Center
Sun 06:26:49 AM 37.6367 -78.6994 229° Southwest 370 426 27,100 600 Climbing Washington Center
Sun 06:27:49 AM 37.5694 -78.7936 228° Southwest 370 426 27,700 454 Climbing Washington Center
Sun 06:28:48 AM 37.5000 -78.8903 228° Southwest 375 432 28,000 154 Climbing Washington Center
Sun 06:29:46 AM 37.4283 -78.9917 228° Southwest 380 437 28,000  Level Washington Center
Sun 06:30:47 AM 37.3503 -79.1006 228° Southwest 380 437 28,000  Level Washington Center
Sun 06:31:49 AM 37.2783 -79.2017 228° Southwest 380 437 28,000  Level Washington Center
Sun 06:32:48 AM 37.1944 -79.2839 218° Southwest 380 437 28,000  Level Washington Center
Sun 06:33:48 AM 37.1086 -79.3578 214° Southwest 380 437 28,000  Level Washington Center
Sun 06:34:48 AM 37.0208 -79.4317 214° Southwest 385 443 28,000  Level Washington Center
Sun 06:35:49 AM 36.9417 -79.4953 213° Southwest 390 449 28,000  Level Washington Center
Sun 06:36:46 AM 36.8517 -79.5686 213° Southwest 390 449 28,000  Level Washington Center
Sun 06:37:48 AM 36.7636 -79.6417 214° Southwest 390 449 28,000 -50 Level Washington Center
Sun 06:38:46 AM 36.6733 -79.7147 213° Southwest 390 449 27,900 -291 Descending Washington Center
Sun 06:39:31 AM 36.6075 -79.7664 212° Southwest 389 448 27,500 -629 Descending Atlanta Center
Sun 06:40:31 AM 36.5161 -79.8411 213° Southwest 394 453 26,800 -1,100 Descending Atlanta Center
Sun 06:41:31 AM 36.4147 -79.9211 212° Southwest 394 453 25,300 -1,250 Descending Atlanta Center
Sun 06:42:31 AM 36.3233 -79.9956 213° Southwest 399 459 24,300 -1,000 Descending Atlanta Center
Sun 06:43:31 AM 36.2319 -80.0747 215° Southwest 404 465 23,300 -1,150 Descending Atlanta Center
Sun 06:44:31 AM 36.1428 -80.1511 215° Southwest 404 465 22,000 -1,400 Descending Atlanta Center
Sun 06:45:31 AM 36.0656 -80.2164 214° Southwest 392 451 20,500 -1,700 Descending Atlanta Center
Sun 06:46:31 AM 35.9861 -80.2844 215° Southwest 379 436 18,600 -2,000 Descending Atlanta Center
Sun 06:47:31 AM 35.9008 -80.3600 216° Southwest 356 410 16,500 -2,017 Descending Atlanta Center
Sun 06:48:30 AM 35.8297 -80.4247 216° Southwest 313 360 14,600 -1,800 Descending Atlanta Center
Sun 06:49:31 AM 35.7606 -80.4792 213° Southwest 316 364 12,900 -1,686 Descending Atlanta Center
Sun 06:50:31 AM 35.6847 -80.5258 207° Southwest 304 350 11,200 -1,722 Descending Atlanta Center
Sun 06:51:26 AM 35.6144 -80.5519 197° South 284 327 9,600 -1,878 Descending Atlanta Center
Sun 06:52:26 AM 35.5789 -80.6197 237° Southwest 268 308 7,600 -1,736 Descending Atlanta Center
Sun 06:53:27 AM 35.5667 -80.7122 261° West 270 311 6,100 -828 Descending Atlanta Center
Sun 06:54:22 AM 35.5289 -80.7750 234° Southwest 254 292 6,000 -716 Descending Atlanta Center
Sun 06:55:16 AM 35.4908 -80.8325 231° Southwest 228 262 4,800 -1,043 Descending Atlanta Center
Sun 06:56:17 AM 35.4544 -80.8850 230° Southwest 200 230 4,000 -730 Descending Atlanta Center
Sun 06:57:11 AM 35.4286 -80.9319 236° Southwest 167 192 3,400 -522 Descending Atlanta Center
Sun 06:58:12 AM 35.3856 -80.9589 207° Southwest 172 198 3,000 -246 Descending Atlanta Center
Sun 06:59:13 AM 35.3397 -80.9658 187° South 171 197 2,900 -98 Descending Atlanta Center

Login

Don't have an account? Register now (free) for customized features, flight alerts, and more!